Time;durP1;ratioP1;P1;durP2;ratioP2;P2;SDS_P1;SDS_P2;PMS_P1;PMS_P2;Temp;Humidity;BMP_temperature;BMP_pressure;BME280_temperature;BME280_humidity;BME280_pressure;Samples;Min_cycle;Max_cycle;Signal;HPM_P1;HPM_P2
2022/04/17 00:00:25;;;;;;;9.88;3.88;;;;;;;12.42;51.38;99058.81;5095456;28;20409;-50
2022/04/17 00:02:52;;;;;;;12.65;6.10;;;;;;;12.56;50.80;99057.78;5094426;28;20382;-49
2022/04/17 00:05:18;;;;;;;7.32;5.38;;;;;;;12.70;50.74;99066.50;5094275;28;20106;-49
2022/04/17 00:07:44;;;;;;;7.57;5.13;;;;;;;12.77;50.50;99055.94;5094312;28;20106;-49
2022/04/17 00:10:10;;;;;;;9.15;4.75;;;;;;;12.85;50.24;99055.72;5094241;28;20016;-51
2022/04/17 00:12:39;;;;;;;14.80;12.48;;;;;;;12.91;50.11;99054.91;5094293;28;20032;-50
2022/04/17 00:15:06;;;;;;;15.13;11.13;;;;;;;12.96;49.71;99054.31;5095456;28;20016;-49
2022/04/17 00:17:31;;;;;;;11.30;4.63;;;;;;;12.98;49.55;99058.34;5095456;28;20570;-50
2022/04/17 00:19:57;;;;;;;4.45;2.30;;;;;;;12.96;49.42;99055.09;5094122;28;20024;-49
2022/04/17 00:22:24;;;;;;;4.78;2.33;;;;;;;12.89;49.35;99054.28;5094060;28;20120;-49
2022/04/17 00:24:49;;;;;;;6.47;2.80;;;;;;;12.85;49.43;99052.28;5093857;28;20408;-50
2022/04/17 00:27:15;;;;;;;7.57;2.45;;;;;;;12.83;49.74;99051.69;5094003;28;20115;-49
2022/04/17 00:29:44;;;;;;;8.07;2.30;;;;;;;12.84;49.57;99048.84;5095592;28;20470;-49
2022/04/17 00:32:10;;;;;;;4.20;3.00;;;;;;;12.81;49.68;99049.25;5093831;28;20111;-49
2022/04/17 00:34:37;;;;;;;12.48;6.10;;;;;;;12.83;49.59;99036.69;5094932;28;20146;-50
2022/04/17 00:37:06;;;;;;;8.75;3.22;;;;;;;12.76;49.69;99039.34;5093749;28;20028;-50
2022/04/17 00:39:32;;;;;;;4.45;2.58;;;;;;;12.72;49.58;99047.88;5093763;28;20101;-50
2022/04/17 00:42:00;;;;;;;10.27;7.22;;;;;;;12.75;49.83;99042.16;5093649;28;20024;-49
2022/04/17 00:44:26;;;;;;;35.60;29.02;;;;;;;12.84;49.44;99040.13;5095151;28;20023;-50
2022/04/17 00:46:52;;;;;;;6.85;5.18;;;;;;;12.89;49.23;99040.31;5093511;28;20020;-49
2022/04/17 00:49:18;;;;;;;10.68;3.03;;;;;;;12.91;49.21;99041.72;5093519;28;20038;-50
2022/04/17 00:51:46;;;;;;;5.40;2.75;;;;;;;12.99;49.20;99051.25;5093460;28;20066;-50
2022/04/17 00:54:14;;;;;;;6.30;2.22;;;;;;;12.96;48.73;99046.41;5094839;28;20122;-50
2022/04/17 00:56:41;;;;;;;22.30;19.58;;;;;;;12.90;48.94;99048.03;5093386;28;20027;-48
2022/04/17 00:59:10;;;;;;;6.20;4.32;;;;;;;12.88;49.03;99044.78;5094659;28;20031;-49
2022/04/17 01:01:37;;;;;;;9.38;4.70;;;;;;;12.85;49.04;99050.47;5093273;28;20027;-50
2022/04/17 01:04:05;;;;;;;8.68;5.47;;;;;;;12.78;49.46;99054.94;5094489;28;20024;-50
2022/04/17 01:06:32;;;;;;;7.43;4.65;;;;;;;12.78;49.13;99054.94;5093171;28;20073;-50
2022/04/17 01:08:59;;;;;;;7.95;4.68;;;;;;;12.76;48.84;99056.97;5093121;28;20043;-50
2022/04/17 01:11:25;;;;;;;4.70;4.15;;;;;;;12.70;49.29;99053.34;5092400;28;20498;-48
2022/04/17 01:13:52;;;;;;;16.75;7.70;;;;;;;12.69;48.97;99056.16;5094350;28;20048;-51
2022/04/17 01:16:23;;;;;;;9.55;8.65;;;;;;;12.65;49.18;99052.31;5094314;28;20497;-50
2022/04/17 01:19:11;;;;;;;9.52;2.92;;;;;;;12.63;49.26;99059.63;5094318;28;20478;-50
2022/04/17 01:21:40;;;;;;;4.72;3.28;;;;;;;12.68;48.79;99055.34;5094326;28;20032;-50
2022/04/17 01:26:56;;;;;;;6.95;3.25;;;;;;;12.54;49.18;99059.03;5094184;28;20030;-50
2022/04/17 01:29:35;;;;;;;11.32;6.13;;;;;;;12.48;48.95;99055.38;5092830;28;20039;-50
2022/04/17 01:32:03;;;;;;;13.75;5.70;;;;;;;12.38;49.29;99055.78;5092717;28;20039;-49
2022/04/17 01:34:30;;;;;;;24.35;21.88;;;;;;;12.30;49.21;99049.91;5093712;28;20051;-50
2022/04/17 01:36:56;;;;;;;20.10;16.98;;;;;;;12.23;49.21;99046.47;5092604;28;20081;-49
2022/04/17 01:39:22;;;;;;;4.93;3.47;;;;;;;12.11;49.28;99048.88;5093952;28;20028;-48
2022/04/17 01:41:49;;;;;;;5.93;2.47;;;;;;;12.03;49.62;99054.34;5092527;28;20028;-49
2022/04/17 01:44:19;;;;;;;5.70;2.88;;;;;;;11.94;49.91;99053.72;5092425;28;20035;-49
2022/04/17 01:46:45;;;;;;;4.63;3.95;;;;;;;11.83;50.13;99056.91;5093741;28;20451;-50
2022/04/17 01:49:13;;;;;;;5.47;4.93;;;;;;;11.58;50.61;99057.44;5094055;28;20088;-49
2022/04/17 01:51:40;;;;;;;5.43;4.13;;;;;;;11.38;50.98;99055.53;5093658;28;20021;-49
2022/04/17 01:54:07;;;;;;;3.75;3.22;;;;;;;11.29;51.18;99056.75;5093656;28;20493;-49
2022/04/17 01:56:34;;;;;;;7.05;3.30;;;;;;;11.20;51.29;99053.44;5092240;28;20111;-50
2022/04/17 01:59:00;;;;;;;13.15;5.60;;;;;;;11.02;52.01;99054.97;5092177;28;20039;-50
2022/04/17 02:01:27;;;;;;;46.13;41.03;;;;;;;10.77;52.52;99052.81;5093491;28;20102;-49
2022/04/17 02:03:53;;;;;;;11.88;9.50;;;;;;;10.59;52.92;99053.31;5092017;28;20016;-49
2022/04/17 02:06:18;;;;;;;9.57;7.15;;;;;;;10.36;53.59;99059.59;5092037;28;20035;-50
2022/04/17 02:08:44;;;;;;;163.55;138.75;;;;;;;10.27;54.77;99057.25;5093347;28;20028;-49
2022/04/17 02:11:11;;;;;;;18.45;14.75;;;;;;;10.31;54.75;99064.59;5091948;28;20028;-49
2022/04/17 02:13:37;;;;;;;12.00;9.48;;;;;;;10.16;55.18;99071.69;5093276;28;20015;-49
2022/04/17 02:16:03;;;;;;;4.93;2.88;;;;;;;10.11;55.81;99077.50;5093204;28;20016;-50
2022/04/17 02:18:29;;;;;;;7.38;2.83;;;;;;;9.99;55.66;99068.50;5091894;28;20161;-50
2022/04/17 02:20:54;;;;;;;4.00;2.72;;;;;;;9.81;55.87;99066.31;5091789;28;20103;-48
2022/04/17 02:23:20;;;;;;;4.22;2.50;;;;;;;9.62;56.93;99069.50;5091949;28;20020;-49
2022/04/17 02:25:46;;;;;;;5.03;3.42;;;;;;;9.59;56.57;99068.88;5091676;28;20031;-49
2022/04/17 02:28:15;;;;;;;3.30;2.60;;;;;;;9.64;56.66;99060.50;5092966;28;20028;-50
2022/04/17 02:30:40;;;;;;;7.53;4.15;;;;;;;9.69;56.76;99071.22;5091593;28;20020;-49
2022/04/17 02:33:06;;;;;;;7.75;3.65;;;;;;;9.64;57.10;99068.34;5091569;28;20031;-49
2022/04/17 02:35:32;;;;;;;6.88;2.70;;;;;;;9.66;57.42;99070.75;5092597;28;20067;-49
2022/04/17 02:37:58;;;;;;;5.03;2.78;;;;;;;9.56;57.00;99071.88;5091516;28;20127;-49
2022/04/17 02:40:24;;;;;;;5.93;2.70;;;;;;;9.43;57.61;99069.09;5092822;28;20050;-49
2022/04/17 02:42:49;;;;;;;7.72;5.03;;;;;;;9.29;58.02;99067.31;5092728;28;20520;-49
2022/04/17 02:45:17;;;;;;;8.52;3.28;;;;;;;9.20;57.88;99069.22;5092516;28;20028;-50
2022/04/17 02:47:42;;;;;;;3.45;2.67;;;;;;;9.29;58.06;99060.25;5092624;28;20016;-49
2022/04/17 02:50:16;;;;;;;3.97;2.40;;;;;;;9.40;58.07;99061.63;5091222;28;20032;-49
2022/04/17 02:52:42;;;;;;;5.38;3.05;;;;;;;9.31;58.32;99057.47;5091281;28;20032;-48
2022/04/17 02:55:09;;;;;;;4.05;2.85;;;;;;;9.24;57.88;99061.84;5091159;28;20040;-49
2022/04/17 02:57:35;;;;;;;10.82;2.65;;;;;;;9.33;58.00;99060.72;5092428;28;20077;-49
2022/04/17 03:00:01;;;;;;;7.82;2.58;;;;;;;9.49;57.44;99060.50;5091067;28;20024;-49
2022/04/17 03:07:55;;;;;;;14.50;7.15;;;;;;;9.54;58.01;99065.22;5092566;28;20458;-49
2022/04/17 03:10:21;;;;;;;3.83;2.85;;;;;;;9.57;57.82;99067.44;5090896;28;20048;-49
2022/04/17 03:12:47;;;;;;;6.57;2.53;;;;;;;9.45;57.47;99069.72;5090973;28;20031;-49
2022/04/17 03:15:13;;;;;;;4.03;3.22;;;;;;;9.18;58.24;99076.47;5092177;28;20028;-49
2022/04/17 03:17:39;;;;;;;6.95;2.72;;;;;;;9.12;58.39;99075.38;5092093;28;20031;-49
2022/04/17 03:20:06;;;;;;;8.50;2.47;;;;;;;9.13;58.18;99070.94;5090782;28;20028;-49
2022/04/17 03:22:32;;;;;;;9.02;5.65;;;;;;;9.11;58.92;99076.34;5092062;28;20051;-48
2022/04/17 03:25:00;;;;;;;6.03;3.88;;;;;;;9.20;58.91;99074.47;5091960;28;20051;-49
2022/04/17 03:27:26;;;;;;;5.10;2.20;;;;;;;9.23;58.05;99074.09;5092296;28;20094;-49
2022/04/17 03:29:52;;;;;;;2.58;2.33;;;;;;;9.05;58.72;99078.88;5090641;28;20021;-49
2022/04/17 03:32:18;;;;;;;9.27;4.72;;;;;;;8.92;58.83;99082.16;5091971;28;20026;-50
2022/04/17 03:34:44;;;;;;;10.50;4.32;;;;;;;8.90;59.19;99068.44;5089989;28;20127;-49
2022/04/17 03:37:10;;;;;;;11.10;4.20;;;;;;;9.09;59.46;99072.28;5090578;28;20032;-48
2022/04/17 03:39:35;;;;;;;11.27;5.88;;;;;;;9.15;59.24;99068.94;5091955;28;20016;-49
2022/04/17 03:42:01;;;;;;;6.38;2.85;;;;;;;9.15;59.13;99069.75;5090535;28;20024;-49
2022/04/17 03:44:27;;;;;;;9.05;3.13;;;;;;;9.03;59.00;99065.16;5091802;28;20081;-48
2022/04/17 03:46:52;;;;;;;3.10;2.42;;;;;;;8.95;58.70;99072.13;5090515;28;20035;-48
2022/04/17 03:49:19;;;;;;;4.93;2.72;;;;;;;8.77;59.44;99074.25;5090470;28;20569;-50
2022/04/17 03:51:44;;;;;;;6.38;2.72;;;;;;;8.66;60.10;99075.53;5090436;28;20109;-49
2022/04/17 03:54:10;;;;;;;7.03;3.03;;;;;;;8.52;60.50;99074.50;5090470;28;20083;-49
2022/04/17 03:56:36;;;;;;;7.50;3.38;;;;;;;8.43;60.32;99072.13;5090375;28;20032;-49
2022/04/17 03:59:02;;;;;;;4.13;2.50;;;;;;;8.51;60.53;99075.50;5090439;28;20051;-49
2022/04/17 04:01:29;;;;;;;6.43;3.45;;;;;;;8.50;60.21;99081.72;5091636;28;20024;-48
2022/04/17 04:03:55;;;;;;;5.00;3.15;;;;;;;8.47;60.06;99078.63;5090259;28;20020;-48
2022/04/17 04:06:21;;;;;;;12.88;6.20;;;;;;;8.57;59.88;99071.34;5090323;28;20032;-48
2022/04/17 04:08:50;;;;;;;4.80;3.17;;;;;;;8.66;59.82;99074.72;5091658;28;20021;-49
2022/04/17 04:11:17;;;;;;;3.60;2.95;;;;;;;8.76;59.45;99075.25;5091608;28;20028;-49
2022/04/17 04:13:43;;;;;;;9.70;7.10;;;;;;;8.63;59.49;99080.28;5091537;28;20020;-48
2022/04/17 04:16:09;;;;;;;9.32;5.10;;;;;;;8.64;59.98;99071.47;5091495;28;20032;-48
2022/04/17 04:18:35;;;;;;;4.43;3.53;;;;;;;8.63;59.35;99072.44;5091551;28;20027;-49
2022/04/17 04:21:01;;;;;;;11.95;8.93;;;;;;;8.52;59.46;99077.13;5090139;28;20024;-49
2022/04/17 04:23:30;;;;;;;11.48;7.13;;;;;;;8.48;59.99;99073.22;5091352;28;20020;-49
2022/04/17 04:25:56;;;;;;;6.88;6.15;;;;;;;8.44;60.12;99077.19;5091457;28;20024;-49
2022/04/17 04:28:36;;;;;;;11.27;6.82;;;;;;;8.37;59.83;99073.59;5091462;28;20020;-49
2022/04/17 04:31:11;;;;;;;15.00;3.45;;;;;;;8.39;59.56;99069.84;5091471;28;20024;-49
2022/04/17 04:33:42;;;;;;;3.58;3.08;;;;;;;8.44;59.65;99073.75;5090058;28;20020;-50
2022/04/17 04:36:11;;;;;;;6.38;3.00;;;;;;;8.49;59.48;99074.03;5089873;28;20072;-50
2022/04/17 04:38:38;;;;;;;11.30;4.60;;;;;;;8.55;58.87;99073.31;5090329;28;20569;-49
2022/04/17 04:41:04;;;;;;;5.95;4.22;;;;;;;8.66;59.48;99074.72;5089974;28;20020;-49
2022/04/17 04:43:30;;;;;;;5.40;3.13;;;;;;;8.58;58.82;99068.56;5089880;28;20028;-49
2022/04/17 04:46:12;;;;;;;8.25;4.50;;;;;;;8.47;59.21;99076.00;5091102;28;20024;-49
2022/04/17 04:51:29;;;;;;;6.45;4.72;;;;;;;8.33;60.34;99075.78;5095135;28;20410;-48
2022/04/17 04:53:56;;;;;;;6.00;4.53;;;;;;;8.31;60.53;99075.16;5093535;28;20032;-49
2022/04/17 04:56:23;;;;;;;3.75;3.22;;;;;;;8.25;60.65;99078.47;5094754;28;20012;-48
2022/04/17 04:58:49;;;;;;;8.73;3.65;;;;;;;8.18;60.77;99080.13;5093358;28;20024;-49
2022/04/17 05:01:14;;;;;;;6.05;3.38;;;;;;;8.03;60.67;99081.88;5094626;28;20027;-49
2022/04/17 05:03:41;;;;;;;14.23;4.10;;;;;;;7.87;60.75;99090.63;5093245;28;20032;-49
2022/04/17 05:06:09;;;;;;;14.63;13.07;;;;;;;7.84;61.86;99094.41;5093233;28;20508;-49
2022/04/17 05:08:35;;;;;;;9.45;8.55;;;;;;;8.03;61.26;99102.78;5093213;28;20119;-49
2022/04/17 05:11:01;;;;;;;6.53;4.13;;;;;;;8.20;60.91;99106.94;5093142;28;20514;-49
2022/04/17 05:13:27;;;;;;;6.50;3.50;;;;;;;8.79;59.84;99101.06;5093122;28;20028;-49
2022/04/17 05:15:52;;;;;;;6.18;3.65;;;;;;;9.87;57.80;99106.69;5093050;28;20093;-49
2022/04/17 05:18:18;;;;;;;7.13;2.63;;;;;;;10.79;54.16;99104.13;5093084;28;20107;-48
2022/04/17 05:20:44;;;;;;;4.07;2.67;;;;;;;11.34;51.88;99106.06;5092988;28;20431;-49
2022/04/17 05:23:26;;;;;;;3.83;2.75;;;;;;;11.75;50.63;99103.41;5094263;28;20541;-49
2022/04/17 05:25:58;;;;;;;4.30;2.42;;;;;;;12.36;49.37;99107.00;5094245;28;20020;-49
2022/04/17 05:28:24;;;;;;;8.32;3.40;;;;;;;12.99;48.39;99110.00;5092861;28;20054;-49
2022/04/17 05:30:50;;;;;;;6.03;2.80;;;;;;;13.68;46.80;99105.19;5092800;28;20024;-50
2022/04/17 05:33:20;;;;;;;7.35;2.92;;;;;;;14.11;45.45;99115.09;5094105;28;20107;-49
2022/04/17 05:35:50;;;;;;;6.97;2.75;;;;;;;14.32;44.46;99113.13;5092471;28;20044;-49
2022/04/17 05:38:16;;;;;;;4.47;2.75;;;;;;;14.46;44.32;99114.63;5093953;28;20093;-50
2022/04/17 05:40:44;;;;;;;4.47;2.70;;;;;;;14.87;43.24;99108.03;5092608;28;20056;-49
2022/04/17 05:43:10;;;;;;;12.93;4.50;;;;;;;14.98;43.62;99115.25;5093899;28;20497;-49
2022/04/17 05:45:38;;;;;;;9.25;4.80;;;;;;;15.17;43.05;99110.78;5092398;28;20100;-49
2022/04/17 05:48:05;;;;;;;5.13;2.97;;;;;;;15.45;41.80;99106.00;5092453;28;20024;-50
2022/04/17 05:50:31;;;;;;;2.40;2.17;;;;;;;15.64;40.83;99107.63;5093700;28;20036;-50
2022/04/17 05:52:57;;;;;;;4.88;2.60;;;;;;;15.68;40.81;99107.97;5093698;28;20486;-50
2022/04/17 05:55:23;;;;;;;5.22;2.40;;;;;;;15.92;40.63;99114.22;5093596;28;20031;-50
2022/04/17 05:57:49;;;;;;;5.38;3.05;;;;;;;16.37;40.74;99129.66;5093355;28;20099;-50
2022/04/17 06:00:16;;;;;;;7.30;2.78;;;;;;;16.96;39.54;99125.25;5092233;28;20504;-50
2022/04/17 06:02:46;;;;;;;7.80;3.22;;;;;;;17.59;38.32;99130.81;5093520;28;20020;-50
2022/04/17 06:05:13;;;;;;;6.22;3.58;;;;;;;18.48;36.43;99119.69;5092339;28;20077;-49
2022/04/17 06:07:39;;;;;;;5.15;2.45;;;;;;;19.40;34.84;99116.75;5092045;28;20024;-49
2022/04/17 06:10:07;;;;;;;6.43;3.58;;;;;;;20.18;33.40;99108.56;5091991;28;20428;-49
2022/04/17 06:12:33;;;;;;;6.40;3.05;;;;;;;20.75;32.47;99108.00;5093276;28;20020;-50
2022/04/17 06:14:59;;;;;;;3.58;2.28;;;;;;;21.08;31.61;99109.53;5091938;28;20570;-49
2022/04/17 06:17:25;;;;;;;5.68;2.70;;;;;;;21.29;31.11;99107.78;5091807;28;20020;-50
2022/04/17 06:19:51;;;;;;;3.13;2.67;;;;;;;21.85;30.18;99103.69;5093179;28;20099;-49
2022/04/17 06:22:18;;;;;;;3.53;2.30;;;;;;;22.41;29.43;99103.00;5091730;28;20020;-50
2022/04/17 06:24:44;;;;;;;2.28;2.00;;;;;;;22.80;28.65;99100.56;5091667;28;20115;-50
2022/04/17 06:27:10;;;;;;;2.50;2.10;;;;;;;23.08;28.02;99101.03;5091693;28;20375;-50
2022/04/17 06:29:36;;;;;;;7.38;2.40;;;;;;;23.47;27.75;99100.38;5091665;28;20115;-49
2022/04/17 06:32:02;;;;;;;4.68;2.20;;;;;;;24.12;26.87;99097.59;5091599;28;20111;-51
2022/04/17 06:34:28;;;;;;;6.15;2.47;;;;;;;24.73;26.13;99096.31;5091307;28;20470;-50
2022/04/17 06:36:53;;;;;;;5.32;2.25;;;;;;;25.10;25.51;99084.91;5091892;28;20059;-50
2022/04/17 06:39:19;;;;;;;3.45;2.22;;;;;;;25.18;24.97;99085.38;5091452;28;20020;-50
2022/04/17 06:41:45;;;;;;;2.63;2.42;;;;;;;24.94;24.99;99088.06;5091398;28;20024;-49
2022/04/17 06:44:12;;;;;;;3.80;2.15;;;;;;;24.67;24.85;99092.06;5091308;28;20023;-51
2022/04/17 06:46:39;;;;;;;3.47;2.40;;;;;;;24.07;25.60;99093.06;5091612;28;20459;-50
2022/04/17 06:49:07;;;;;;;4.75;3.75;;;;;;;24.25;25.64;99088.13;5091315;28;20485;-50
2022/04/17 06:51:32;;;;;;;7.90;5.85;;;;;;;24.58;25.13;99096.47;5092506;28;20024;-48
2022/04/17 06:53:58;;;;;;;5.97;3.45;;;;;;;24.49;25.06;99091.69;5091239;28;20111;-50
2022/04/17 06:56:24;;;;;;;39.83;27.33;;;;;;;24.22;25.24;99094.03;5092443;28;20020;-50
2022/04/17 06:58:50;;;;;;;8.18;7.28;;;;;;;24.46;25.31;99094.13;5091073;28;20107;-50
2022/04/17 07:01:16;;;;;;;6.65;3.75;;;;;;;24.73;24.45;99085.59;5092362;28;20020;-50
2022/04/17 07:03:42;;;;;;;5.53;2.40;;;;;;;24.91;24.18;99097.47;5091018;28;20028;-51
2022/04/17 07:06:08;;;;;;;2.97;2.17;;;;;;;25.62;23.49;99095.84;5090945;28;20047;-50
2022/04/17 07:08:34;;;;;;;3.58;2.47;;;;;;;26.35;22.30;99091.00;5090442;28;20493;-51
2022/04/17 07:10:59;;;;;;;4.22;2.22;;;;;;;27.05;21.94;99086.56;5091174;28;20032;-49
2022/04/17 07:13:26;;;;;;;2.42;2.22;;;;;;;27.55;21.32;99078.56;5092238;28;20027;-50
2022/04/17 07:15:52;;;;;;;4.90;3.13;;;;;;;27.94;20.66;99079.84;5092205;28;20038;-49
2022/04/17 07:18:18;;;;;;;6.47;3.40;;;;;;;28.39;20.22;99077.16;5092237;28;20028;-50
2022/04/17 07:20:45;;;;;;;2.60;2.22;;;;;;;28.78;19.60;99075.63;5092076;28;20103;-50
2022/04/17 07:23:10;;;;;;;3.22;2.20;;;;;;;29.17;19.54;99070.53;5090770;28;20024;-50
2022/04/17 07:25:36;;;;;;;5.18;2.40;;;;;;;29.60;19.03;99067.91;5090681;28;20020;-49
2022/04/17 07:28:03;;;;;;;3.42;2.55;;;;;;;30.04;18.76;99070.63;5090764;28;20027;-51
2022/04/17 07:30:32;;;;;;;3.85;3.47;;;;;;;30.32;18.38;99064.88;5092063;28;20031;-51
2022/04/17 07:33:01;;;;;;;5.95;2.40;;;;;;;30.46;18.50;99063.56;5092030;28;20065;-50
2022/04/17 07:35:28;;;;;;;3.42;2.22;;;;;;;30.48;18.20;99057.03;5091804;28;20082;-51
2022/04/17 07:38:00;;;;;;;5.13;2.33;;;;;;;30.48;18.31;99055.09;5091995;28;20023;-51
2022/04/17 07:40:27;;;;;;;3.88;2.38;;;;;;;30.40;18.35;99048.59;5091876;28;20401;-50
2022/04/17 07:42:55;;;;;;;4.43;2.30;;;;;;;30.85;17.88;99055.44;5091902;28;20032;-49
2022/04/17 07:45:21;;;;;;;4.85;2.28;;;;;;;31.40;17.54;99048.28;5090478;28;20103;-50
2022/04/17 07:47:49;;;;;;;5.43;2.25;;;;;;;31.72;17.15;99054.94;5090499;28;20027;-50
2022/04/17 07:50:23;;;;;;;3.17;2.20;;;;;;;32.04;16.95;99058.81;5091773;28;20012;-50
2022/04/17 07:52:50;;;;;;;4.20;2.90;;;;;;;32.08;16.94;99056.25;5091814;28;20039;-50
2022/04/17 07:55:17;;;;;;;4.43;4.03;;;;;;;31.86;17.27;99054.66;5090396;28;20499;-49
2022/04/17 08:00:27;;;;;;;5.90;5.30;;;;;;;31.83;17.05;99063.44;5091769;28;20042;-51
2022/04/17 08:03:06;;;;;;;6.03;5.00;;;;;;;32.14;16.46;99060.31;5091700;28;20051;-51
2022/04/17 08:05:42;;;;;;;6.45;3.28;;;;;;;32.42;16.52;99057.00;5090327;28;20031;-50
2022/04/17 08:08:09;;;;;;;4.30;2.40;;;;;;;32.81;15.80;99050.16;5090359;28;20051;-50
2022/04/17 08:10:38;;;;;;;3.85;2.80;;;;;;;33.21;15.27;99052.19;5091606;28;20020;-50
2022/04/17 08:13:05;;;;;;;4.28;3.05;;;;;;;33.42;14.95;99045.78;5090301;28;20031;-51
2022/04/17 08:15:30;;;;;;;9.98;8.98;;;;;;;33.09;15.45;99044.06;5090199;28;20043;-51
2022/04/17 08:17:56;;;;;;;5.20;4.43;;;;;;;33.01;15.31;99042.22;5091575;28;20012;-51
2022/04/17 08:20:22;;;;;;;4.20;3.17;;;;;;;33.23;15.17;99046.41;5093602;28;20055;-50
2022/04/17 08:22:48;;;;;;;6.53;4.13;;;;;;;33.01;15.08;99036.78;5094122;28;20025;-51
2022/04/17 08:25:14;;;;;;;6.05;5.38;;;;;;;32.22;15.78;99042.38;5094001;28;20028;-51
2022/04/17 08:27:48;;;;;;;4.40;3.58;;;;;;;32.20;16.00;99031.03;5094152;28;20043;-50
2022/04/17 08:30:18;;;;;;;3.00;2.70;;;;;;;32.16;16.05;99041.00;5093973;28;20036;-51
2022/04/17 08:32:44;;;;;;;7.18;4.22;;;;;;;31.65;16.08;99035.66;5093984;28;20043;-51
2022/04/17 08:35:09;;;;;;;3.33;2.50;;;;;;;31.52;15.98;99040.25;5093581;28;20048;-50
2022/04/17 08:37:35;;;;;;;3.25;2.90;;;;;;;31.42;16.21;99037.91;5095229;28;20160;-51
2022/04/17 08:40:02;;;;;;;2.80;2.50;;;;;;;31.24;16.35;99034.53;5093747;28;20024;-50
2022/04/17 08:42:31;;;;;;;3.17;2.88;;;;;;;30.96;16.78;99035.00;5093780;28;20028;-51
2022/04/17 08:44:57;;;;;;;6.15;3.30;;;;;;;31.10;16.78;99034.75;5094958;28;20505;-50
2022/04/17 08:47:23;;;;;;;5.47;3.80;;;;;;;31.06;16.90;99031.91;5094960;28;20031;-50
2022/04/17 08:49:50;;;;;;;2.65;2.45;;;;;;;31.41;16.31;99025.44;5093603;28;20020;-51
2022/04/17 08:52:17;;;;;;;2.72;2.40;;;;;;;31.45;16.45;99031.84;5093479;28;20024;-50
2022/04/17 08:54:45;;;;;;;4.00;2.67;;;;;;;31.63;16.09;99027.88;5094817;28;20108;-50
2022/04/17 08:57:11;;;;;;;3.30;2.40;;;;;;;32.12;15.94;99030.00;5093469;28;20082;-50
2022/04/17 08:59:38;;;;;;;6.85;2.20;;;;;;;32.31;15.39;99021.31;5094745;28;20028;-50
2022/04/17 09:02:07;;;;;;;3.80;2.88;;;;;;;32.41;15.31;99022.81;5094641;28;20435;-49
2022/04/17 09:04:34;;;;;;;5.93;2.50;;;;;;;32.35;15.28;99018.72;5094561;28;20106;-51
2022/04/17 09:07:00;;;;;;;4.57;2.22;;;;;;;32.42;15.60;99011.59;5093259;28;20024;-50
2022/04/17 09:09:27;;;;;;;3.65;2.65;;;;;;;32.43;15.16;99018.59;5094602;28;20489;-49
2022/04/17 09:11:55;;;;;;;5.82;4.07;;;;;;;31.59;16.13;99018.81;5093192;28;20020;-50
2022/04/17 09:14:21;;;;;;;2.75;2.53;;;;;;;30.98;16.35;99013.00;5093192;28;20020;-51
2022/04/17 09:16:50;;;;;;;2.90;2.45;;;;;;;30.22;16.63;99009.94;5093101;28;20119;-50
2022/04/17 09:19:18;;;;;;;6.13;3.28;;;;;;;30.49;16.79;99013.38;5076221;28;20340;-50
2022/04/17 09:21:44;;;;;;;2.95;2.75;;;;;;;31.06;16.44;99012.94;5094298;28;20118;-51
2022/04/17 09:24:19;;;;;;;3.17;2.88;;;;;;;31.53;16.19;99012.00;5094189;28;20028;-50
2022/04/17 09:26:58;;;;;;;7.63;2.85;;;;;;;31.85;16.24;99005.00;5094201;28;20501;-51
2022/04/17 09:29:30;;;;;;;4.43;2.85;;;;;;;32.72;15.50;98999.75;5092860;28;20024;-52
2022/04/17 09:32:00;;;;;;;4.72;2.50;;;;;;;33.26;14.71;98990.53;5092157;28;20028;-51
2022/04/17 09:34:27;;;;;;;2.50;2.20;;;;;;;32.93;14.75;98994.19;5092701;28;20052;-51
2022/04/17 09:37:00;;;;;;;3.13;2.60;;;;;;;32.44;14.71;98986.81;5094034;28;20099;-51
2022/04/17 09:39:35;;;;;;;4.93;2.22;;;;;;;32.48;15.10;98990.44;5094051;28;20069;-50
2022/04/17 09:42:03;;;;;;;2.95;2.47;;;;;;;33.08;14.81;98996.19;5093916;28;20428;-51
2022/04/17 09:44:36;;;;;;;5.20;2.85;;;;;;;33.60;14.70;98989.94;5093795;28;20032;-50
2022/04/17 09:47:04;;;;;;;4.07;2.37;;;;;;;34.03;14.22;98987.63;5092516;28;20106;-51
2022/04/17 09:49:30;;;;;;;2.97;2.40;;;;;;;34.06;13.73;98980.66;5093753;28;20278;-51
2022/04/17 09:52:07;;;;;;;2.75;2.42;;;;;;;34.13;14.28;98984.38;5092352;28;20028;-50
2022/04/17 09:54:33;;;;;;;4.05;2.30;;;;;;;34.11;14.28;98975.75;5093719;28;20032;-52
2022/04/17 09:56:59;;;;;;;2.53;2.33;;;;;;;34.52;13.77;98973.66;5092268;28;20524;-51
2022/04/17 09:59:25;;;;;;;6.13;3.55;;;;;;;34.76;13.92;98971.91;5093876;28;20028;-51
2022/04/17 10:01:52;;;;;;;4.97;2.63;;;;;;;35.26;13.16;98964.03;5093519;28;20070;-50
2022/04/17 10:04:20;;;;;;;2.75;2.10;;;;;;;35.42;12.98;98962.00;5093463;28;20016;-52
2022/04/17 10:06:47;;;;;;;3.95;2.50;;;;;;;35.26;13.18;98961.31;5092146;28;20027;-51
2022/04/17 10:09:13;;;;;;;3.08;2.50;;;;;;;34.94;12.89;98966.84;5093364;28;20582;-51
2022/04/17 10:11:40;;;;;;;5.10;2.33;;;;;;;34.54;13.64;98960.47;5093328;28;20107;-51
2022/04/17 10:14:07;;;;;;;5.05;2.35;;;;;;;34.06;13.36;98961.59;5092019;28;20073;-51
2022/04/17 10:16:34;;;;;;;2.17;1.80;;;;;;;34.03;13.81;98955.72;5093256;28;20107;-51
2022/04/17 10:19:10;;;;;;;6.03;2.28;;;;;;;34.12;14.06;98944.63;5091878;28;20031;-51
2022/04/17 10:21:36;;;;;;;4.35;2.42;;;;;;;34.36;13.11;98957.31;5093221;28;20032;-51
2022/04/17 10:24:04;;;;;;;2.28;2.05;;;;;;;34.50;13.58;98947.91;5093048;28;20030;-50
2022/04/17 10:26:37;;;;;;;5.10;2.80;;;;;;;34.47;13.42;98959.50;5091732;28;20031;-51
2022/04/17 10:29:06;;;;;;;5.68;2.72;;;;;;;34.38;13.31;98952.31;5093086;28;20088;-51
2022/04/17 10:32:19;;;;;;;4.00;2.60;;;;;;;34.25;13.95;98948.13;5092916;28;20024;-51
2022/04/17 10:35:00;;;;;;;4.60;2.30;;;;;;;34.29;13.62;98943.53;5086961;28;20460;-52
2022/04/17 10:38:01;;;;;;;2.42;2.05;;;;;;;34.52;13.28;98938.22;5092940;28;20024;-51
2022/04/17 10:40:27;;;;;;;2.28;2.08;;;;;;;34.56;13.30;98932.84;5091585;28;20465;-51
2022/04/17 10:42:59;;;;;;;3.85;2.20;;;;;;;34.28;13.60;98939.22;5090814;28;20105;-50
2022/04/17 10:45:26;;;;;;;4.05;2.55;;;;;;;34.17;13.71;98949.88;5092502;28;20498;-51
2022/04/17 10:48:10;;;;;;;5.38;2.25;;;;;;;33.86;13.74;98950.59;5091479;28;20027;-51
2022/04/17 10:50:48;;;;;;;4.18;2.38;;;;;;;33.74;14.59;98942.50;5091269;28;20024;-51
2022/04/17 10:53:27;;;;;;;2.83;2.30;;;;;;;33.58;14.34;98937.78;5091295;28;20027;-51
2022/04/17 10:56:10;;;;;;;3.13;2.60;;;;;;;33.44;14.67;98931.94;5091192;28;20438;-51
2022/04/17 10:58:41;;;;;;;4.93;2.95;;;;;;;32.98;14.45;98934.13;5092555;28;20017;-51
2022/04/17 11:01:10;;;;;;;4.63;2.53;;;;;;;32.45;15.43;98934.84;5092493;28;20047;-52
2022/04/17 11:03:36;;;;;;;4.28;2.50;;;;;;;32.53;15.69;98925.00;5091087;28;20031;-50
2022/04/17 11:06:32;;;;;;;2.58;2.38;;;;;;;32.54;15.59;98928.50;5092265;28;20032;-50
2022/04/17 11:09:09;;;;;;;2.53;2.28;;;;;;;32.51;15.71;98926.47;5092358;28;20036;-51
2022/04/17 11:11:37;;;;;;;4.88;2.67;;;;;;;32.86;15.55;98926.81;5092370;28;20448;-52
2022/04/17 11:14:16;;;;;;;5.70;2.50;;;;;;;33.13;14.87;98922.56;5092268;28;20017;-51
2022/04/17 11:16:57;;;;;;;5.55;2.75;;;;;;;33.22;15.24;98912.34;5092232;28;20096;-51
2022/04/17 11:19:34;;;;;;;7.78;2.38;;;;;;;33.18;14.99;98919.59;5092225;28;20028;-50
2022/04/17 11:22:04;;;;;;;3.17;2.55;;;;;;;33.08;14.87;98922.75;5090803;28;20127;-51
2022/04/17 11:24:55;;;;;;;3.38;2.33;;;;;;;32.98;15.52;98921.34;5092005;28;20069;-50
2022/04/17 11:27:41;;;;;;;2.80;2.50;;;;;;;32.85;15.18;98906.19;5091993;28;20028;-51
2022/04/17 11:30:16;;;;;;;2.78;2.15;;;;;;;32.98;15.32;98905.03;5090736;28;20086;-52
2022/04/17 11:32:41;;;;;;;4.20;2.40;;;;;;;32.82;15.15;98910.38;5090698;28;20036;-53
2022/04/17 11:35:15;;;;;;;2.90;2.33;;;;;;;32.70;15.53;98912.31;5091762;28;20123;-50
2022/04/17 11:37:53;;;;;;;4.13;3.70;;;;;;;32.77;15.56;98905.16;5090633;28;20367;-52
2022/04/17 11:40:20;;;;;;;2.97;2.55;;;;;;;32.62;15.33;98903.19;5091966;28;20063;-52
2022/04/17 11:42:47;;;;;;;6.85;2.55;;;;;;;32.33;16.25;98907.69;5091903;28;20016;-52
2022/04/17 11:45:16;;;;;;;3.60;2.10;;;;;;;32.36;16.31;98900.78;5090458;28;20028;-51
2022/04/17 11:47:44;;;;;;;6.10;4.63;;;;;;;32.28;16.20;98902.50;5090756;28;20398;-50
2022/04/17 11:50:18;;;;;;;5.05;3.38;;;;;;;32.29;15.63;98904.06;5090507;28;20111;-51
2022/04/17 11:52:48;;;;;;;2.67;2.47;;;;;;;32.36;16.14;98898.88;5090549;28;20497;-51